• Join FlightAware (Why Join?)
  • Login
  • US Flag 
04:07PM EDT


 

Airport Tracker/Info


-or-


 

Live Flight TrackerFlight Track Log ✈ AWE1452 ✈ 08-May-2013 ✈ MDPC / PUJ - KPHL

Flight Track Log - Related Links

Times and Time Zones

All times are in EDT time to prevent confusion due to time zone crossing. See the AWE1452 flight status page for this flight to view local times or setup timezone preferences in your user account.

Time Position Orientation Groundspeed Altitude Reporting Facility
EDT Latitude Longitude Course Direction KTS MPH feet Rate Location/Type
03:30PM 18.9336 -68.9492 302° West 457 526 19,900  Level Miami Center
03:31PM 19.0078 -69.0567 306° West 464 534 21,900 2,460 Climbing Miami Center
03:32PM 19.0906 -69.1375 317° Northwest 432 497 24,900 2,100 Climbing Miami Center
03:33PM 19.1758 -69.2203 317° Northwest 418 481 26,200 1,380 Climbing Miami Center
03:34PM 19.2692 -69.3031 320° Northwest 418 481 27,700 1,380 Climbing Miami Center
03:35PM 19.2318 -69.6418 302° West  Level FlightAware Approximate
03:35PM 19.3567 -69.3925 316° Northwest 430 495 29,000  Level Miami Center
03:36PM 19.4503 -69.4819 318° Northwest 441 507 30,600 1,380 Climbing Miami Center
03:37PM 19.5461 -69.5692 319° Northwest 457 526 31,800 1,140 Climbing Miami Center
03:38PM 19.6356 -69.6633 315° West 457 526 32,900 1,200 Climbing Miami Center
03:39PM 19.7403 -69.7658 317° Northwest 457 526 34,200 1,500 Climbing Miami Center
03:40PM 19.8228 -69.8453 318° Northwest 457 526 35,900 1,260 Climbing Miami Center
03:41PM 19.9206 -69.9350 319° Northwest 457 526 36,800 900 Climbing Miami Center
03:42PM 20.0100 -70.0253 317° Northwest 452 520 37,800 600 Climbing Miami Center
03:43PM 20.1014 -70.1178 316° Northwest 452 520 38,000 60 Climbing Miami Center
03:44PM 20.1950 -70.2081 318° Northwest 452 520 38,000  Level Miami Center
03:45PM 20.2903 -70.2983 318° Northwest 452 520 38,000  Level Miami Center
03:46PM 20.4014 -70.3661 330° Northwest 447 514 38,000  Level Miami Center
03:47PM 20.5264 -70.4111 341° North 465 535 38,000  Level Miami Center
03:48PM 20.6531 -70.4517 343° North 465 535 38,000  Level Miami Center
03:49PM 20.7819 -70.4944 343° North 475 547 38,000  Level Miami Center
03:50PM 20.9089 -70.5417 341° North 475 547 38,000  Level Miami Center
03:51PM 21.0358 -70.5847 342° North 475 547 38,000  Level Miami Center
03:52PM 21.1647 -70.6275 343° North 475 547 38,000  Level Miami Center
03:53PM 21.2894 -70.6708 342° North 475 547 38,000  Level Miami Center
03:54PM 21.4183 -70.7139 343° North 475 547 38,000  Level Miami Center
03:55PM 21.5453 -70.7592 342° North 475 547 38,000  Level Miami Center
03:56PM 21.6722 -70.8025 342° North 475 547 38,000  Level Miami Center
03:57PM 21.7969 -70.8483 341° North 475 547 38,000  Level Miami Center
03:58PM 21.9367 -70.8978 342° North 476 548 38,000  Level Miami Center
03:59PM 22.0614 -70.9436 341° North 476 548 38,000  Level Miami Center
04:00PM 22.1861 -70.9872 342° North 476 548 38,000  Level Miami Center
04:01PM 22.3089 -71.0311 342° North 476 548 38,000  Level Miami Center
04:02PM 22.4358 -71.0772 341° North 476 548 38,000  Level Miami Center
04:03PM 22.5606 -71.1189 343° North 476 548 38,000  Level Miami Center
04:04PM 22.6853 -71.1650 341° North 476 548 38,000  Level Miami Center
04:05PM 22.8103 -71.2092 342° North 476 548 38,000  Level Miami Center
04:06PM 22.9353 -71.2578 340° North 476 548 38,000  Level Miami Center
04:07PM 23.0600 -71.3019 342° North 471 542 38,000  Level Miami Center
04:08PM 23.1869 -71.3506 341° North 471 542 38,000  Level Miami Center
04:09PM 23.2967 -71.3842 344° North 471 542 38,000 60 Level Miami Center
04:10PM 23.4217 -71.4308 341° North 471 542 38,200 240 Climbing Miami Center
04:11PM 23.5444 -71.4778 341° North 471 542 38,500 300 Climbing Miami Center
04:12PM 23.6689 -71.5200 343° North 471 542 38,800 240 Climbing Miami Center
04:13PM 23.7958 -71.5647 342° North 471 542 39,000 60 Climbing Miami Center
04:14PM 23.9069 -71.6372 329° Northwest 471 542 39,000  Level Miami Center
04:15PM 24.0017 -71.7194 322° Northwest 456 525 39,000  Level Miami Center
04:16PM 24.0903 -71.8047 319° Northwest 441 507 39,000  Level Miami Center
04:18PM 24.3289 -71.8883 342° North 457 526 39,000  Level Miami Center
04:19PM 24.4597 -71.8011 31° Northeast 471 542 39,000  Level Miami Center
04:20PM 24.5403 -71.6561 59° Northeast 478 550 39,000  Level Miami Center
04:21PM 24.6125 -71.5117 61° Northeast 499 574 39,000  Level Miami Center
04:22PM 24.7036 -71.3775 53° Northeast 532 612 39,000  Level Miami Center
04:23PM 24.8408 -71.3094 24° Northeast 512 589 39,000  Level Miami Center
04:24PM 24.9733 -71.3356 350° North 478 550 39,000  Level Miami Center
04:25PM 25.0578 -71.4167 319° Northwest 411 473 39,000  Level Miami Center
04:26PM 25.1081 -71.5336 295° West 352 405 39,000  Level Miami Center
04:27PM 25.0619 -71.6478 246° West 321 369 39,000  Level Miami Center
04:28PM 25.0431 -71.7633 260° West 337 388 39,000  Level Miami Center
04:29PM 25.0217 -71.8719 258° West 359 413 39,000  Level Miami Center
04:30PM 25.0106 -71.9756 263° West 347 399 39,000  Level Miami Center
04:31PM 25.0969 -72.0636 317° Northwest 346 398 39,000  Level Miami Center
04:32PM 25.2139 -72.1303 333° Northwest 397 457 39,000  Level Miami Center
04:33PM 25.0000 -72.0000 330° Northwest 466 536 39,000  Level New York Oceanic (ODAPS)
04:40PM 26.1242 -72.7164 330° Northwest 466 536 39,000  Level FlightAware Transoceanic
04:41PM 26.2364 -72.7888 330° Northwest 466 536 39,000  Level FlightAware Transoceanic
04:42PM 26.3486 -72.8613 330° Northwest 466 536 39,000  Level FlightAware Transoceanic
04:43PM 26.4608 -72.9340 330° Northwest 466 536 39,000  Level FlightAware Transoceanic
04:44PM 26.5729 -73.0068 330° Northwest 466 536 39,000  Level FlightAware Transoceanic
04:45PM 26.6849 -73.0798 330° Northwest 466 536 39,000  Level FlightAware Transoceanic
04:46PM 26.7970 -73.1529 330° Northwest 466 536 39,000  Level FlightAware Transoceanic
04:47PM 26.9090 -73.2261 330° Northwest 466 536 39,000  Level FlightAware Transoceanic
04:48PM 27.0210 -73.2995 330° Northwest 466 536 39,000  Level FlightAware Transoceanic
04:49PM 27.1329 -73.3730 330° Northwest 466 536 39,000  Level FlightAware Transoceanic
04:50PM 27.2448 -73.4467 330° Northwest 466 536 39,000  Level FlightAware Transoceanic
04:51PM 27.3566 -73.5206 330° Northwest 466 536 39,000  Level FlightAware Transoceanic
04:52PM 27.4684 -73.5945 330° Northwest 466 536 39,000  Level FlightAware Transoceanic
04:53PM 27.5802 -73.6687 330° Northwest 466 536 39,000  Level FlightAware Transoceanic
04:54PM 27.6919 -73.7430 329° Northwest 466 536 39,000  Level FlightAware Transoceanic
04:55PM 27.8036 -73.8174 329° Northwest 466 536 39,000  Level FlightAware Transoceanic
04:56PM 27.9153 -73.8920 329° Northwest 466 536 39,000  Level FlightAware Transoceanic
04:57PM 28.0269 -73.9667 329° Northwest 466 536 39,000  Level FlightAware Transoceanic
04:58PM 28.1385 -74.0416 329° Northwest 466 536 39,000  Level FlightAware Transoceanic
04:59PM 28.2500 -74.1167 322° Northwest 466 536 39,000  Level FlightAware Transoceanic
05:00PM 28.3478 -74.2041 322° Northwest 466 536 39,000  Level FlightAware Transoceanic
05:01PM 28.4455 -74.2918 322° Northwest 466 536 39,000  Level FlightAware Transoceanic
05:02PM 28.5432 -74.3795 322° Northwest 466 536 39,000 600 Level FlightAware Transoceanic
05:02PM 28.2500 -74.1167 322° Northwest 434 499 40,000  Climbing New York Oceanic (ODAPS)
05:03PM 28.6408 -74.4675 322° Northwest 466 536 39,000 -780 Descending FlightAware Transoceanic
05:04PM 28.7384 -74.5556 322° Northwest 466 536 39,000  Level FlightAware Transoceanic
05:05PM 28.8359 -74.6439 322° Northwest 466 536 39,000  Level FlightAware Transoceanic
05:06PM 28.9334 -74.7324 322° Northwest 466 536 39,000  Level FlightAware Transoceanic
05:07PM 29.0308 -74.8210 321° Northwest 466 536 39,000 480 Level FlightAware Transoceanic
05:08PM 29.0072 -74.7995 321° Northwest 434 499 40,000 480 Climbing FlightAware Transoceanic
05:09PM 29.1016 -74.8855 321° Northwest 434 499 40,000  Level FlightAware Transoceanic
05:10PM 29.1959 -74.9717 321° Northwest 434 499 40,000  Level FlightAware Transoceanic
05:11PM 29.2902 -75.0581 321° Northwest 434 499 40,000  Level FlightAware Transoceanic
05:12PM 29.3845 -75.1446 321° Northwest 434 499 40,000  Level FlightAware Transoceanic
05:13PM 29.4786 -75.2313 321° Northwest 434 499 40,000  Level FlightAware Transoceanic
05:14PM 29.5728 -75.3182 321° Northwest 434 499 40,000  Level FlightAware Transoceanic
05:15PM 29.6668 -75.4052 321° Northwest 434 499 40,000  Level FlightAware Transoceanic
05:16PM 29.7608 -75.4923 321° Northwest 434 499 40,000  Level FlightAware Transoceanic
05:17PM 29.8548 -75.5797 321° Northwest 434 499 40,000  Level FlightAware Transoceanic
05:18PM 29.9487 -75.6672 321° Northwest 434 499 40,000  Level FlightAware Transoceanic
05:19PM 30.0425 -75.7548 321° Northwest 434 499 40,000  Level FlightAware Transoceanic
05:20PM 30.1363 -75.8427 321° Northwest 434 499 40,000  Level FlightAware Transoceanic
05:21PM 30.2300 -75.9307 321° Northwest 434 499 40,000  Level FlightAware Transoceanic
05:22PM 30.3237 -76.0188 321° Northwest 434 499 40,000  Level FlightAware Transoceanic
05:23PM 30.4173 -76.1072 321° Northwest 434 499 40,000  Level FlightAware Transoceanic
05:24PM 30.5108 -76.1957 321° Northwest 434 499 40,000  Level FlightAware Transoceanic
05:25PM 30.6043 -76.2844 321° Northwest 434 499 40,000  Level FlightAware Transoceanic
05:25PM 30.6675 -76.3367 321° Northwest 455 524 40,000  Level Jacksonville Center
05:26PM 30.6978 -76.3732 321° Northwest 434 499 40,000  Level FlightAware Transoceanic
05:26PM 30.7636 -76.4219 323° Northwest 433 498 40,000  Level Jacksonville Center
05:27PM 30.7911 -76.4622 321° Northwest 434 499 40,000  Level FlightAware Transoceanic
05:27PM 30.8561 -76.5147 319° Northwest 433 498 40,000  Level Jacksonville Center
05:28PM 30.8844 -76.5514 321° Northwest 434 499 40,000  Level FlightAware Transoceanic
05:28PM 30.9483 -76.6100 318° Northwest 433 498 40,000  Level Jacksonville Center
05:29PM 30.9777 -76.6408 321° Northwest 434 499 40,000  Level FlightAware Transoceanic
05:29PM 31.0464 -76.6908 325° Northwest 433 498 40,000  Level Jacksonville Center
05:30PM 31.1350 -76.7967 314° West 438 504 40,000  Level Jacksonville Center
05:31PM 31.2347 -76.8775 325° Northwest 438 504 40,000  Level Jacksonville Center
05:32PM 31.3267 -76.9689 320° Northwest 438 504 40,000  Level Jacksonville Center
05:33PM 31.4228 -77.0600 321° Northwest 438 504 40,000 -540 Level Jacksonville Center
05:34PM 31.5400 -77.1136 339° North 443 510 39,000 -540 Descending Jacksonville Center
05:35PM 31.6725 -77.1372 351° North 449 517 39,000  Level Jacksonville Center
05:36PM 31.8033 -77.1656 350° North 465 535 39,000  Level Jacksonville Center
05:37PM 31.9358 -77.1892 351° North 471 542 39,000  Level Jacksonville Center
05:38PM 32.0644 -77.2206 348° North 471 542 39,000  Level Jacksonville Center
05:40PM 32.1876 -77.1311 13° North  Level FlightAware Approximate
05:40PM 32.3325 -77.1914 13° North 471 542 39,000  Level Jacksonville Center
05:41PM 32.4664 -77.1561 13° North 482 555 38,600 -840 Descending Jacksonville Center
05:42PM 32.6003 -77.1156 14° North 487 560 37,400 -1,500 Descending Jacksonville Center
05:43PM 32.7364 -77.0772 13° North 487 560 35,700 -1,020 Descending Jacksonville Center
05:45PM 32.9306 -77.0242 13° North 509 586 35,000 -300 Descending Washington Center
05:46PM 33.0686 -76.9869 13° North 509 586 35,000  Level Washington Center
05:47PM 33.2044 -76.9469 14° North 509 586 35,000  Level Washington Center
05:48PM 33.3406 -76.9069 14° North 504 580 35,000  Level Washington Center
05:49PM 33.4744 -76.8667 14° North 499 574 35,000  Level Washington Center
05:50PM 33.6083 -76.8311 12° North 494 568 35,000  Level Washington Center
05:51PM 33.7422 -76.7908 14° North 494 568 35,000  Level Washington Center
05:52PM 33.8761 -76.7528 13° North 487 560 35,000  Level Washington Center
05:53PM 34.0081 -76.7144 14° North 487 560 35,000  Level Washington Center
05:54PM 34.1378 -76.6761 14° North 487 560 35,000  Level Washington Center
05:55PM 34.2736 -76.6375 13° North 487 560 35,000  Level Washington Center
05:56PM 34.4056 -76.5964 14° North 487 560 35,000  Level Washington Center
05:57PM 34.5392 -76.5578 13° North 487 560 35,000  Level Washington Center
05:58PM 34.6647 -76.5164 15° North 487 560 35,000 -480 Level Washington Center
05:59PM 34.7986 -76.4800 13° North 487 560 34,100 -1,020 Descending Washington Center
06:00PM 34.9303 -76.4408 14° North 482 555 33,000 -600 Descending Washington Center
06:01PM 35.0600 -76.4042 13° North 482 555 33,000  Level Washington Center
06:02PM 35.1769 -76.3619 16° North 482 555 33,000  Level Washington Center
06:03PM 35.3086 -76.3250 13° North 476 548 33,000  Level Washington Center
06:04PM 35.4364 -76.2856 14° North 469 540 33,000  Level Washington Center
06:05PM 35.5636 -76.2508 13° North 469 540 33,000  Level Washington Center
06:10PM 36.2970 -76.0200 13° North 462 532 33,000 -60 Level FlightAware
06:11PM 36.3750 -75.9960 14° North 462 532 32,800 -180 Descending FlightAware
06:12PM 36.4460 -75.9740 14° North 462 532 32,800 -2,220 Level FlightAware
06:13PM 36.5690 -75.9360 14° North 481 554 29,700 -2,280 Descending FlightAware
06:13PM 36.6780 -75.9020 14° North 493 567 29,000 -480 Descending FlightAware
06:14PM 36.7700 -75.8740 14° North 493 567 29,000  Level FlightAware
06:15PM 36.8630 -75.8450 14° North 499 574 29,000  Level FlightAware
06:16PM 36.9630 -75.8140 14° North 500 575 29,000  Level FlightAware
06:17PM 37.2090 -75.7370 14° North 497 572 29,000 -120 Level FlightAware
06:19PM 37.3910 -75.6800 14° North 497 572 28,800 -840 Descending FlightAware
06:20PM 37.5243 -75.6383 14° North 514 592 27,300 -1,740 Descending FlightAware ADS-B
06:20PM 37.5969 -75.6155 14° North 517 595 26,500 -1,500 Descending FlightAware ADS-B
06:21PM 37.6733 -75.5913 14° North 520 598 25,700 -1,440 Descending FlightAware ADS-B
06:21PM 37.7449 -75.5688 14° North 523 602 25,000 -720 Descending FlightAware ADS-B
06:22PM 37.8175 -75.5458 14° North 527 606 25,000  Level FlightAware ADS-B
06:22PM 37.8896 -75.5229 14° North 528 608 25,000  Level FlightAware ADS-B
06:23PM 37.9610 -75.5004 14° North 527 606 25,000  Level FlightAware ADS-B
06:24PM 38.1010 -75.4450 17° North 524 603 25,000  Level FlightAware
06:24PM 38.1512 -75.4156 25° Northeast 490 564 25,000 -960 Level FlightAware ADS-B
06:25PM 38.2113 -75.3789 26° Northeast 473 544 24,200 -2,040 Descending FlightAware ADS-B
06:25PM 38.2733 -75.3403 26° Northeast 471 542 22,900 -2,340 Descending FlightAware ADS-B
06:26PM 38.3370 -75.3007 26° Northeast 465 535 21,700 -2,100 Descending FlightAware ADS-B
06:26PM 38.3880 -75.2680 27° Northeast 452 520 20,700 -2,220 Descending FlightAware
06:26PM 38.4161 -75.2510 25° Northeast 458 527 20,200 -2,460 Descending FlightAware ADS-B
06:27PM 38.4739 -75.2150 26° Northeast 452 520 19,000 -2,340 Descending FlightAware ADS-B
06:27PM 38.5340 -75.1776 26° Northeast 445 512 17,800 -2,340 Descending FlightAware ADS-B
06:28PM 38.5891 -75.1433 26° Northeast 439 505 16,600 -2,160 Descending FlightAware ADS-B
06:29PM 38.6748 -75.0898 26° Northeast 430 495 15,100 -1,260 Descending FlightAware ADS-B
06:29PM 38.7301 -75.0554 26° Northeast 424 488 15,000 -120 Descending FlightAware ADS-B
06:30PM 38.7840 -75.0214 26° Northeast 429 494 15,000  Level FlightAware ADS-B
06:30PM 38.8418 -74.9850 26° Northeast 427 491 15,000  Level FlightAware ADS-B
06:31PM 38.8954 -74.9513 26° Northeast 418 481 15,000 -240 Level FlightAware ADS-B
06:31PM 38.9479 -74.9182 26° Northeast 415 478 14,800 -840 Descending FlightAware ADS-B
06:32PM 39.0008 -74.8851 26° Northeast 415 478 14,200 -1,080 Descending FlightAware ADS-B
06:32PM 39.0536 -74.8516 26° Northeast 411 473 13,700 -1,260 Descending FlightAware ADS-B
06:33PM 39.0846 -74.8333 25° Northeast 407 468 13,200 -1,740 Descending FlightAware ADS-B
06:33PM 39.0914 -74.8304 18° North 406 467 13,100 -780 Descending FlightAware ADS-B
06:33PM 39.1137 -74.8250 11° North 402 463 13,000 -300 Descending FlightAware ADS-B
06:33PM 39.1278 -74.8243 North 400 460 13,000 -720 Level FlightAware ADS-B
06:34PM 39.2068 -74.8209 North 398 458 12,400 -1,380 Descending FlightAware ADS-B
06:34PM 39.2720 -74.7714 30° Northeast 386 444 11,100 -1,800 Descending FlightAware ADS-B
06:35PM 39.2936 -74.7525 34° Northeast 382 440 10,700 -1,020 Descending FlightAware ADS-B
06:35PM 39.3506 -74.7386 11° North 366 421 10,300 -600 Descending FlightAware ADS-B
06:35PM 39.3752 -74.7467 346° North 349 402 10,200 -540 Descending FlightAware ADS-B
06:36PM 39.3851 -74.7526 335° Northwest 343 395 10,100 -300 Descending FlightAware ADS-B
06:36PM 39.4025 -74.7680 326° Northwest 332 382 10,100 -300 Level FlightAware ADS-B
06:36PM 39.4119 -74.7800 315° West 323 372 10,000 -720 Descending FlightAware ADS-B
06:36PM 39.4294 -74.8037 314° West 316 364 9,800 -600 Descending FlightAware ADS-B
06:36PM 39.4445 -74.8247 313° West 306 352 9,700 -600 Descending FlightAware ADS-B
06:37PM 39.4600 -74.8463 313° West 301 346 9,500 -780 Descending FlightAware ADS-B
06:37PM 39.4746 -74.8667 313° West 298 343 9,300 -960 Descending FlightAware ADS-B
06:37PM 39.4902 -74.8887 313° West 296 341 9,000 -1,140 Descending FlightAware ADS-B
06:38PM 39.5048 -74.9088 313° West 295 339 8,700 -1,320 Descending FlightAware ADS-B
06:38PM 39.5201 -74.9299 313° West 296 341 8,300 -1,380 Descending FlightAware ADS-B
06:38PM 39.5345 -74.9498 313° West 295 339 8,000 -1,020 Descending FlightAware ADS-B
06:38PM 39.5480 -74.9685 313° West 294 338 7,800 -960 Descending FlightAware ADS-B
06:38PM 39.5523 -74.9740 315° West 293 337 7,700 -1,020 Descending FlightAware ADS-B
06:39PM 39.5592 -74.9822 318° Northwest 292 336 7,600 -900 Descending FlightAware ADS-B
06:39PM 39.5657 -74.9891 321° Northwest 291 335 7,500 -1,080 Descending FlightAware ADS-B
06:39PM 39.5779 -75.0006 324° Northwest 291 335 7,300 -1,140 Descending FlightAware ADS-B
06:39PM 39.5952 -75.0159 326° Northwest 290 334 7,000 -1,140 Descending FlightAware ADS-B
06:39PM 39.6134 -75.0313 327° Northwest 288 331 6,700 -1,020 Descending FlightAware ADS-B
06:40PM 39.6301 -75.0454 327° Northwest 286 329 6,500 -1,020 Descending FlightAware ADS-B
06:40PM 39.6481 -75.0607 327° Northwest 284 327 6,200 -960 Descending FlightAware ADS-B
06:40PM 39.6666 -75.0765 327° Northwest 284 327 6,000 -600 Descending FlightAware ADS-B
06:40PM 39.6725 -75.0809 330° Northwest 284 327 6,000  Level FlightAware ADS-B
06:41PM 39.7164 -75.0953 346° North 285 328 6,000  Level FlightAware ADS-B
06:41PM 39.7276 -75.0969 354° North 284 327 6,000  Level FlightAware ADS-B
06:41PM 39.7609 -75.1008 355° North 265 305 6,000  Level FlightAware ADS-B
06:42PM 39.7798 -75.1031 355° North 256 295 6,000  Level FlightAware ADS-B
06:42PM 39.7901 -75.1041 356° North 251 289 6,000  Level FlightAware ADS-B
06:42PM 39.7990 -75.1029 North 245 282 6,000  Level FlightAware ADS-B
06:42PM 39.8124 -75.0984 14° North 235 270 6,000 -480 Level FlightAware ADS-B
06:42PM 39.8249 -75.0934 17° North 221 254 5,800 -900 Descending FlightAware ADS-B
06:43PM 39.8394 -75.0850 24° Northeast 213 245 5,600 -1,020 Descending FlightAware ADS-B
06:43PM 39.8620 -75.0710 25° Northeast 209 241 5,000 -1,560 Descending FlightAware
06:43PM 39.8802 -75.0590 27° Northeast 206 237 4,400 -2,100 Descending FlightAware ADS-B
06:44PM 39.8920 -75.0514 26° Northeast 208 239 4,000 -2,040 Descending FlightAware ADS-B
06:44PM 39.8957 -75.0495 22° Northeast 208 239 3,800 -1,800 Descending FlightAware ADS-B
06:44PM 39.9017 -75.0478 12° North 210 242 3,700 -960 Descending FlightAware ADS-B
06:44PM 39.9077 -75.0483 356° North 211 243 3,600 -1,440 Descending FlightAware ADS-B
06:44PM 39.9137 -75.0509 342° North 211 243 3,400 -1,500 Descending FlightAware ADS-B
06:44PM 39.9185 -75.0550 327° Northwest 210 242 3,300 -1,080 Descending FlightAware ADS-B
06:44PM 39.9264 -75.0735 299° West 209 241 3,000 -960 Descending FlightAware ADS-B
06:45PM 39.9276 -75.0826 280° West 202 232 2,900 -1,080 Descending FlightAware ADS-B
06:45PM 39.9286 -75.0936 277° West 201 231 2,700 -1,200 Descending FlightAware ADS-B
06:45PM 39.9288 -75.1007 272° West 201 231 2,600 -1,500 Descending FlightAware ADS-B
06:45PM 39.9283 -75.1084 265° West 198 228 2,400 -1,320 Descending FlightAware ADS-B
06:45PM 39.9269 -75.1171 258° West 194 223 2,300 -1,080 Descending FlightAware ADS-B
06:45PM 39.9236 -75.1334 255° West 186 214 2,000 -1,020 Descending FlightAware ADS-B
06:46PM 39.9198 -75.1503 254° West 170 196 1,800 -1,020 Descending FlightAware ADS-B
06:46PM 39.9161 -75.1649 252° West 165 190 1,500 -1,020 Descending FlightAware ADS-B
06:46PM 39.9140 -75.1723 250° West 166 191 1,400 -900 Descending FlightAware ADS-B
06:46PM 39.9124 -75.1777 249° West 165 190 1,300 -900 Descending FlightAware ADS-B
06:46PM 39.9097 -75.1915 256° West 151 174 1,100 -780 Descending FlightAware ADS-B
06:46PM 39.9082 -75.1985 254° West 143 165 1,000 -960 Descending FlightAware ADS-B
06:47PM 39.9058 -75.2114 256° West 138 159 700 -1,020 Descending FlightAware ADS-B
06:47PM 39.9030 -75.2237 253° West 138 159 500 -780 Descending FlightAware ADS-B
06:47PM 39.9005 -75.2365 256° West 138 159 300 -300 Descending FlightAware ADS-B
06:48PM 39.8970 -75.2540 255° West 136 157 300  Level FlightAware